Latest Weather Observations for Victoria River Downs

IDD60801

Issued at 7:01 am CST Tuesday 30 August 2016 (issued every 30 minutes, with the page automatically refreshed every 10 minutes)

About weather observations | Map of weather stations | Latest weather observations for NT | Other Formats
Station Details ID: 014825 Name: VICTORIA RIVER DOWNS Lat: -16.40 Lon: 131.01 Height: 88.5 m
Data from the previous 72 hours. | See also: Recent months at Victoria River Downs
Date/Time
CST
Temp
°C
App
Temp
°C
Dew
Point
°C
Rel
Hum
%
Delta-T
°C
Wind Press
QNH
hPa
Press
MSL
hPa
Rain since
9am
mm
Dir  Spd
km/h
Gust
km/h
Spd
kts
Gust
kts
29/08:00pm 27.4 27.4 9.7 33 9.9 CALM 0 0 0 0 1011.7 - 0.0
29/07:30pm 28.8 27.7 10.0 31 10.6 W 6 7 3 4 1011.2 - 0.0
29/07:00pm 30.1 28.6 9.1 27 11.7 NW 7 9 4 5 1010.8 - 0.0
29/06:30pm 32.0 30.2 9.5 25 12.8 NW 9 11 5 6 1010.6 - 0.0
29/06:00pm 33.1 31.2 9.2 23 13.6 NW 9 11 5 6 1010.2 - 0.0
29/05:30pm 34.3 31.9 8.8 21 14.5 WNW 11 15 6 8 1010.1 - 0.0
29/05:00pm 34.5 32.4 8.3 20 14.8 WNW 9 22 5 12 1009.7 - 0.0
29/04:30pm 34.6 32.7 9.1 21 14.6 N 9 15 5 8 1009.5 - 0.0
29/04:00pm 33.9 30.7 7.0 19 14.8 N 13 22 7 12 1009.6 - 0.0
29/03:30pm 34.0 31.0 7.9 20 14.6 NNW 13 20 7 11 1009.7 - 0.0
29/03:00pm 33.6 29.6 8.3 21 14.2 NNE 19 28 10 15 1010.1 - 0.0
29/02:30pm 33.5 30.5 7.5 20 14.4 NNE 13 24 7 13 1010.5 - 0.0
29/02:00pm 33.7 30.8 8.3 21 14.3 NNW 13 19 7 10 1010.9 - 0.0
29/01:30pm 33.3 31.0 11.8 27 12.7 N 15 26 8 14 1011.6 - 0.0
29/01:00pm 32.5 29.1 10.5 26 12.7 N 19 30 10 16 1012.1 - 0.0
29/12:30pm 32.1 28.7 10.7 27 12.4 NNW 19 33 10 18 1012.7 - 0.0
29/12:00pm 31.5 29.1 12.8 32 11.2 N 17 28 9 15 1013.3 - 0.0
29/11:30am 31.2 29.0 12.1 31 11.3 N 15 26 8 14 1014.0 - 0.0
29/11:00am 29.8 28.4 13.5 36 9.8 NNW 13 17 7 9 1014.4 - 0.0
29/10:30am 28.3 26.8 11.8 36 9.6 NNW 11 17 6 9 1014.7 - 0.0
29/10:00am 27.4 25.8 10.2 34 9.7 E 9 13 5 7 1015.1 - 0.0
29/09:30am 26.5 24.7 8.0 31 10.0 E 7 11 4 6 1015.2 - 0.0
29/09:00am 24.9 22.5 4.1 26 10.4 E 6 9 3 5 1015.2 - 0.0
29/08:30am 21.2 19.8 5.5 36 7.8 SE 2 6 1 3 1014.9 - 0.0
29/08:00am 18.7 17.5 4.5 39 6.8 CALM 0 0 0 0 1014.5 - 0.0
29/07:30am 15.4 14.4 5.6 52 4.7 CALM 0 0 0 0 1014.3 - 0.0
29/07:00am 14.4 12.6 1.0 40 5.8 CALM 0 4 0 2 1014.0 - 0.0
29/06:30am 14.7 11.1 0.9 39 6.0 W 9 17 5 9 1013.5 - 0.0
29/06:00am 14.5 12.8 2.1 43 5.5 CALM 0 0 0 0 1012.6 - 0.0
29/05:30am 16.0 15.1 5.9 51 4.9 CALM 0 0 0 0 1012.2 - 0.0
29/05:00am 16.8 14.3 1.3 35 6.9 N 4 9 2 5 1011.7 - 0.0
29/04:30am 17.5 13.5 0.6 32 7.4 NE 11 15 6 8 1011.4 - 0.0
29/04:00am 17.3 12.7 1.3 34 7.1 ENE 15 19 8 10 1011.3 - 0.0
29/03:30am 14.4 10.7 2.3 44 5.4 ENE 11 13 6 7 1011.6 - 0.0
29/03:00am 13.9 12.3 2.2 45 5.2 CALM 0 0 0 0 1012.3 - 0.0
29/02:30am 14.7 12.9 0.9 39 6.0 CALM 0 0 0 0 1012.5 - 0.0
29/02:00am 16.0 13.3 2.8 41 6.0 E 6 7 3 4 1012.8 - 0.0
29/01:30am 15.3 13.6 2.1 41 5.9 CALM 0 0 0 0 1012.9 - 0.0
29/01:00am 16.3 13.8 4.7 46 5.5 S 7 9 4 5 1013.0 - 0.0
29/12:30am 16.1 12.5 0.3 34 6.8 W 9 11 5 6 1012.9 - 0.0
29/12:00am 16.1 14.1 -0.2 33 7.0 CALM 0 0 0 0 1012.9 - 0.0
 
Date/Time
CST
Temp
°C
App
Temp
°C
Dew
Point
°C
Rel
Hum
%
Delta-T
°C
Wind Press
QNH
hPa
Press
MSL
hPa
Rain since
9am
mm
Dir  Spd
km/h
Gust
km/h
Spd
kts
Gust
kts
28/11:30pm 16.8 14.1 0.0 32 7.2 NW 4 6 2 3 1012.9 - 0.0
28/11:00pm 17.2 15.3 0.4 32 7.3 CALM 0 0 0 0 1012.8 - 0.0
28/10:30pm 18.0 16.2 1.5 33 7.4 CALM 0 0 0 0 1012.7 - 0.0
28/10:00pm 18.7 16.8 0.3 29 8.1 CALM 0 0 0 0 1012.7 - 0.0
28/09:30pm 19.4 17.8 2.7 33 7.8 CALM 0 0 0 0 1012.8 - 0.0
28/09:00pm 20.2 18.3 0.6 27 8.8 CALM 0 0 0 0 1012.7 - 0.0
28/08:30pm 21.4 19.5 0.6 25 9.4 CALM 0 0 0 0 1012.5 - 0.0
28/08:00pm 22.4 20.6 1.4 25 9.8 CALM 0 0 0 0 1012.1 - 0.0
28/07:30pm 24.8 23.1 1.7 22 11.0 CALM 0 0 0 0 1011.6 - 0.0
28/07:00pm 26.6 24.6 -0.4 17 12.5 CALM 0 0 0 0 1011.3 - 0.0
28/06:30pm 30.3 28.1 -1.2 13 14.8 CALM 0 0 0 0 1011.1 - 0.0
28/06:00pm 31.7 28.6 -0.1 13 15.4 SE 6 7 3 4 1011.2 - 0.0
28/05:30pm 32.8 29.6 0.8 13 15.8 NNE 7 11 4 6 1011.2 - 0.0
28/05:00pm 33.2 29.9 -1.2 11 16.5 ESE 6 11 3 6 1011.1 - 0.0
28/04:30pm 33.3 29.8 -1.1 11 16.6 E 7 13 4 7 1011.1 - 0.0
28/04:00pm 32.9 29.4 -1.4 11 16.4 NNE 7 15 4 8 1011.1 - 0.0
28/03:30pm 32.6 28.3 -1.7 11 16.3 E 11 15 6 8 1011.4 - 0.0
28/03:00pm 32.6 29.0 0.6 13 15.8 ESE 9 15 5 8 1011.8 - 0.0
28/02:30pm 32.3 28.5 -0.7 12 15.9 S 9 13 5 7 1012.3 - 0.0
28/02:00pm 32.4 29.0 -0.6 12 15.9 S 7 15 4 8 1013.0 - 0.0
28/01:30pm 31.2 27.3 -1.5 12 15.4 E 9 13 5 7 1013.5 - 0.0
28/01:00pm 31.3 27.0 -1.5 12 15.5 N 11 19 6 10 1014.1 - 0.0
28/12:30pm 30.5 26.8 0.0 14 14.7 N 9 15 5 8 1014.8 - 0.0
28/12:00pm 29.6 25.7 1.1 16 13.9 ENE 11 19 6 10 1015.4 - 0.0
28/11:30am 28.4 23.6 0.2 16 13.4 NE 15 24 8 13 1016.1 - 0.0
28/11:00am 27.6 22.6 1.2 18 12.7 NE 17 24 9 13 1016.7 - 0.0
28/10:30am 26.5 21.0 1.7 20 12.0 ENE 20 28 11 15 1017.1 - 0.0
28/10:00am 24.8 20.7 2.3 23 10.8 ENE 13 20 7 11 1017.5 - 0.0
28/09:30am 23.1 19.2 3.6 28 9.5 NNE 13 17 7 9 1017.7 - 0.0
28/09:00am 22.0 19.0 1.1 25 9.6 ENE 6 11 3 6 1017.7 - 0.0
28/08:30am 19.9 17.2 0.4 27 8.7 E 4 7 2 4 1017.4 - 0.0
28/08:00am 15.8 14.6 4.5 47 5.3 CALM 0 0 0 0 1017.2 - 0.0
28/07:30am 13.2 11.3 0.6 42 5.3 CALM 0 0 0 0 1016.9 - 0.0
28/07:00am 13.7 11.8 0.7 41 5.5 CALM 0 6 0 3 1016.5 - 0.0
28/06:30am 15.0 11.1 -1.5 32 6.8 NE 9 15 5 8 1016.0 - 0.0
28/06:00am 15.1 10.9 -1.0 33 6.7 ENE 11 13 6 7 1015.6 - 0.0
28/05:30am 15.3 11.9 -0.9 33 6.8 ENE 7 9 4 5 1015.6 - 0.0
28/05:00am 14.9 11.1 -0.8 34 6.5 NE 9 9 5 5 1015.6 - 0.0
28/04:30am 11.0 9.0 -0.2 46 4.5 CALM 0 6 0 3 1015.7 - 0.0
28/04:00am 11.1 8.0 1.4 51 4.1 E 7 7 4 4 1015.7 - 0.0
28/03:30am 11.4 8.1 -1.0 42 5.0 E 6 9 3 5 1015.7 - 0.0
28/03:00am 11.8 9.3 -1.0 41 5.1 WSW 2 6 1 3 1016.0 - 0.0
28/02:30am 12.8 9.5 0.2 42 5.3 WSW 7 9 4 5 1016.0 - 0.0
28/02:00am 13.0 9.8 -0.3 40 5.5 WNW 6 9 3 5 1015.8 - 0.0
28/01:30am 13.0 11.0 -0.3 40 5.5 CALM 0 0 0 0 1016.0 - 0.0
28/01:00am 13.3 10.7 -1.4 36 5.9 N 2 6 1 3 1016.2 - 0.0
28/12:30am 14.2 11.7 -1.0 35 6.3 WNW 2 7 1 4 1016.2 - 0.0
28/12:00am 14.2 11.2 -2.2 32 6.6 WNW 4 7 2 4 1016.1 - 0.0
 
Date/Time
CST
Temp
°C
App
Temp
°C
Dew
Point
°C
Rel
Hum
%
Delta-T
°C
Wind Press
QNH
hPa
Press
MSL
hPa
Rain since
9am
mm
Dir  Spd
km/h
Gust
km/h
Spd
kts
Gust
kts
27/11:30pm 14.6 12.4 -1.5 33 6.6 CALM 0 0 0 0 1016.2 - 0.0
27/11:00pm 15.0 12.7 -2.0 31 6.9 CALM 0 0 0 0 1016.1 - 0.0
27/10:30pm 15.8 13.8 -0.4 33 6.9 CALM 0 0 0 0 1016.0 - 0.0
27/10:00pm 17.5 15.2 2.7 37 6.8 SSW 4 9 2 5 1015.9 - 0.0
27/09:30pm 17.6 15.5 -0.6 29 7.8 CALM 0 0 0 0 1015.7 - 0.0
27/09:00pm 18.4 16.3 -0.9 27 8.3 CALM 0 0 0 0 1015.6 - 0.0
27/08:30pm 19.5 17.4 -1.0 25 8.9 CALM 0 0 0 0 1015.4 - 0.0
27/08:00pm 21.1 18.9 0.9 26 9.2 SE 2 4 1 2 1015.0 - 0.0
27/07:30pm 23.0 19.8 -0.5 21 10.6 SE 6 7 3 4 1014.4 - 0.0
27/07:00pm 25.7 22.6 0.4 19 11.8 SE 6 7 3 4 1014.2 - 0.0
27/06:30pm 28.6 25.1 -1.5 14 13.9 SE 7 9 4 5 1013.9 - 0.0
27/06:00pm 30.3 26.8 -1.2 13 14.8 E 7 11 4 6 1013.9 - 0.0
27/05:30pm 30.9 28.7 -1.8 12 15.3 CALM 0 4 0 2 1013.8 - 0.0
27/05:00pm 31.5 27.5 -2.5 11 15.8 ENE 9 13 5 7 1013.7 - 0.0
27/04:30pm 30.9 27.2 -3.0 11 15.5 SSE 7 15 4 8 1013.7 - 0.0
27/04:00pm 30.9 26.6 -1.8 12 15.3 E 11 19 6 10 1014.1 - 0.0
27/03:30pm 30.5 26.5 -2.1 12 15.1 NE 9 17 5 9 1014.3 - 0.0
27/03:00pm 30.4 24.9 -2.2 12 15.1 ENE 17 26 9 14 1014.8 - 0.0
27/02:30pm 30.2 25.4 -2.3 12 15.0 NE 13 19 7 10 1015.2 - 0.0
27/02:00pm 29.5 24.8 -1.8 13 14.5 ENE 13 24 7 13 1015.6 - 0.0
27/01:30pm 29.2 24.3 -3.1 12 14.6 ENE 13 26 7 14 1016.2 - 0.0
27/01:00pm 28.9 24.1 -2.3 13 14.2 E 13 24 7 13 1017.1 - 0.0
27/12:30pm 27.7 22.2 -2.2 14 13.6 E 17 26 9 14 1017.7 - 0.0
27/12:00pm 26.7 21.0 -4.0 13 13.4 NE 17 28 9 15 1018.3 - 0.0
27/11:30am 26.7 21.5 -3.0 14 13.2 NE 15 26 8 14 1019.0 - 0.0
27/11:00am 25.5 19.2 -3.9 14 12.7 NE 20 32 11 17 1019.5 - 0.0
27/10:30am 25.3 18.5 -1.5 17 12.1 ENE 24 33 13 18 1019.7 - 0.0
27/10:00am 24.0 17.7 -1.0 19 11.2 ENE 22 33 12 18 1019.8 - 0.0
27/09:30am 22.8 17.0 -1.3 20 10.7 ENE 19 28 10 15 1019.8 - 0.0
27/09:00am 21.5 16.4 -1.7 21 10.1 NE 15 19 8 10 1019.7 - 0.0
27/08:30am 19.1 16.1 0.7 29 8.2 ENE 6 9 3 5 1019.6 - 0.0
27/08:00am 14.0 12.3 2.0 44 5.3 CALM 0 0 0 0 1019.2 - 0.0
27/07:30am 10.0 8.1 0.6 52 3.8 CALM 0 0 0 0 1018.9 - 0.0

Other Formats:

Comma delimited format used in spreadsheet applications
http://www.bom.gov.au/fwo/IDD60801/IDD60801.94232.axf

JavaScript Object Notation format (JSON) in row-major order
http://www.bom.gov.au/fwo/IDD60801/IDD60801.94232.json